UPS8797 KPHL-KBOS
Flight info
| Callsign | UPS8797 |
|---|---|
| Flight time | 0h 59m |
| Altitude | 35000 |
| Route | DITCH LUIGI HNNAH JFK ROBUC3 |
| Aircraft | B77L/H-SDE1E2E3FGHIJ2J3J4J5M1RWXY/LB1D1 |
Departure
| Time | 2026-05-04 16:23 |
|---|---|
| Airport | Philadelphia International Airport (KPHL) |
Arrival
| Time | 2026-05-04 17:23 |
|---|---|
| Airport | Boston Logan International Airport (KBOS) |
| Time | Latitude | Longitude | Altitude | Speed | Heading |
|---|---|---|---|---|---|
| 2026-05-04 16:02 | 39.86218 | -75.24865 | 26 ft | 0 kts | 336° |
| 2026-05-04 16:16 | 39.86276 | -75.24824 | 26 ft | 0 kts | 41° |
| 2026-05-04 16:16 | 39.86416 | -75.24835 | 27 ft | 19 kts | 346° |
| 2026-05-04 16:17 | 39.86499 | -75.24863 | 27 ft | 1 kts | 345° |
| 2026-05-04 16:18 | 39.86732 | -75.24830 | 27 ft | 16 kts | 73° |
| 2026-05-04 16:18 | 39.86760 | -75.24691 | 27 ft | 16 kts | 76° |
| 2026-05-04 16:19 | 39.86888 | -75.24052 | 27 ft | 27 kts | 76° |
| 2026-05-04 16:19 | 39.86980 | -75.23582 | 31 ft | 24 kts | 76° |
| 2026-05-04 16:20 | 39.86998 | -75.23443 | 29 ft | 0 kts | 112° |
| 2026-05-04 16:21 | 39.86962 | -75.23416 | 27 ft | 15 kts | 154° |
| 2026-05-04 16:22 | 39.86891 | -75.23476 | 29 ft | 7 kts | 248° |
| 2026-05-04 16:22 | 39.86476 | -75.25469 | 264 ft | 163 kts | 253° |
| 2026-05-04 16:23 | 39.83558 | -75.25520 | 2178 ft | 234 kts | 115° |
| 2026-05-04 16:24 | 39.83971 | -75.16164 | 5291 ft | 278 kts | 90° |
| 2026-05-04 16:25 | 39.83769 | -75.11002 | 6827 ft | 297 kts | 95° |
| 2026-05-04 16:26 | 39.82695 | -75.00134 | 10352 ft | 312 kts | 97° |
| 2026-05-04 16:26 | 39.81644 | -74.90812 | 11246 ft | 387 kts | 97° |
| 2026-05-04 16:27 | 39.80810 | -74.83681 | 12765 ft | 407 kts | 97° |
| 2026-05-04 16:28 | 39.80609 | -74.72663 | 15104 ft | 415 kts | 64° |
| 2026-05-04 16:28 | 39.86319 | -74.64631 | 17397 ft | 414 kts | 32° |
| 2026-05-04 16:29 | 39.95742 | -74.55572 | 20230 ft | 430 kts | 32° |
| 2026-05-04 16:30 | 40.02959 | -74.48421 | 22408 ft | 440 kts | 33° |
| 2026-05-04 16:31 | 40.07889 | -74.43524 | 23699 ft | 450 kts | 33° |
| 2026-05-04 16:31 | 40.15445 | -74.36019 | 25323 ft | 462 kts | 33° |
| 2026-05-04 16:32 | 40.22342 | -74.29142 | 26692 ft | 473 kts | 33° |
| 2026-05-04 16:33 | 40.28492 | -74.22994 | 27859 ft | 482 kts | 33° |
| 2026-05-04 16:33 | 40.32964 | -74.18514 | 28668 ft | 488 kts | 33° |
| 2026-05-04 16:34 | 40.38352 | -74.13102 | 30070 ft | 485 kts | 33° |
| 2026-05-04 16:34 | 40.41001 | -74.10441 | 30587 ft | 485 kts | 33° |
| 2026-05-04 16:35 | 40.48763 | -74.01615 | 31004 ft | 497 kts | 45° |
| 2026-05-04 16:35 | 40.55125 | -73.90890 | 31002 ft | 497 kts | 49° |
| 2026-05-04 16:36 | 40.61512 | -73.80120 | 31001 ft | 498 kts | 48° |
| 2026-05-04 16:37 | 40.68222 | -73.69719 | 31015 ft | 497 kts | 43° |
| 2026-05-04 16:38 | 40.77558 | -73.56286 | 31005 ft | 499 kts | 44° |
| 2026-05-04 16:39 | 40.88440 | -73.40247 | 30656 ft | 493 kts | 44° |
| 2026-05-04 16:40 | 40.93022 | -73.33484 | 29552 ft | 489 kts | 44° |
| 2026-05-04 16:40 | 40.97484 | -73.26872 | 28468 ft | 475 kts | 44° |
| 2026-05-04 16:41 | 41.01812 | -73.20446 | 27471 ft | 463 kts | 44° |
| 2026-05-04 16:41 | 41.08128 | -73.11049 | 25979 ft | 448 kts | 44° |
| 2026-05-04 16:42 | 41.14262 | -73.01897 | 24577 ft | 436 kts | 45° |
| 2026-05-04 16:43 | 41.18244 | -72.95941 | 23670 ft | 430 kts | 45° |
| 2026-05-04 16:43 | 41.21988 | -72.89847 | 22857 ft | 421 kts | 57° |
| 2026-05-04 16:43 | 41.23346 | -72.86432 | 22814 ft | 417 kts | 60° |
| 2026-05-04 16:44 | 41.28582 | -72.72167 | 22403 ft | 430 kts | 60° |
| 2026-05-04 16:45 | 41.31249 | -72.65108 | 22172 ft | 427 kts | 60° |
| 2026-05-04 16:46 | 41.35240 | -72.54606 | 21883 ft | 423 kts | 60° |
| 2026-05-04 16:46 | 41.37893 | -72.47609 | 21691 ft | 421 kts | 60° |
| 2026-05-04 16:47 | 41.40519 | -72.40659 | 21605 ft | 418 kts | 60° |
| 2026-05-04 16:47 | 41.43122 | -72.33754 | 21424 ft | 420 kts | 60° |
| 2026-05-04 16:48 | 41.47052 | -72.23303 | 21144 ft | 422 kts | 61° |
| 2026-05-04 16:48 | 41.48364 | -72.19798 | 20992 ft | 424 kts | 61° |
| 2026-05-04 16:49 | 41.50957 | -72.12719 | 20378 ft | 418 kts | 62° |
| 2026-05-04 16:49 | 41.53462 | -72.05845 | 19796 ft | 409 kts | 62° |
| 2026-05-04 16:50 | 41.55926 | -71.99052 | 19250 ft | 404 kts | 63° |
| 2026-05-04 16:50 | 41.58007 | -71.92099 | 18682 ft | 401 kts | 66° |
| 2026-05-04 16:51 | 41.60037 | -71.85185 | 18124 ft | 399 kts | 66° |
| 2026-05-04 16:51 | 41.61048 | -71.81768 | 17819 ft | 398 kts | 66° |
| 2026-05-04 16:51 | 41.63054 | -71.74966 | 17238 ft | 394 kts | 66° |
| 2026-05-04 16:52 | 41.65067 | -71.68137 | 16701 ft | 391 kts | 66° |
| 2026-05-04 16:52 | 41.66044 | -71.64812 | 16425 ft | 384 kts | 66° |
| 2026-05-04 16:53 | 41.67954 | -71.58298 | 15904 ft | 367 kts | 66° |
| 2026-05-04 16:53 | 41.70646 | -71.49097 | 15178 ft | 346 kts | 66° |
| 2026-05-04 16:54 | 41.71522 | -71.46092 | 14945 ft | 344 kts | 65° |
| 2026-05-04 16:55 | 41.75858 | -71.34957 | 14016 ft | 333 kts | 55° |
| 2026-05-04 16:55 | 41.78168 | -71.29629 | 13537 ft | 328 kts | 56° |
| 2026-05-04 16:56 | 41.80413 | -71.24360 | 13060 ft | 322 kts | 56° |
| 2026-05-04 16:56 | 41.83693 | -71.16652 | 12386 ft | 316 kts | 56° |
| 2026-05-04 16:57 | 41.84779 | -71.14095 | 12171 ft | 315 kts | 56° |
| 2026-05-04 16:57 | 41.86926 | -71.09080 | 11767 ft | 307 kts | 56° |
| 2026-05-04 16:58 | 41.90145 | -71.01637 | 11224 ft | 305 kts | 56° |
| 2026-05-04 16:58 | 41.91199 | -70.99196 | 11022 ft | 304 kts | 56° |
| 2026-05-04 16:59 | 41.93303 | -70.94309 | 10648 ft | 300 kts | 56° |
| 2026-05-04 17:00 | 41.97403 | -70.84776 | 9927 ft | 284 kts | 56° |
| 2026-05-04 17:00 | 42.00297 | -70.78017 | 9402 ft | 275 kts | 56° |
| 2026-05-04 17:01 | 42.02474 | -70.73923 | 8884 ft | 262 kts | 43° |
| 2026-05-04 17:01 | 42.04912 | -70.70431 | 7435 ft | 256 kts | 41° |
| 2026-05-04 17:02 | 42.07315 | -70.66894 | 5954 ft | 253 kts | 42° |
| 2026-05-04 17:02 | 42.09650 | -70.63403 | 4538 ft | 247 kts | 42° |
| 2026-05-04 17:03 | 42.10867 | -70.61831 | 3755 ft | 237 kts | 23° |
| 2026-05-04 17:03 | 42.12408 | -70.61210 | 3399 ft | 236 kts | 6° |
| 2026-05-04 17:03 | 42.15674 | -70.60303 | 3026 ft | 236 kts | 8° |
| 2026-05-04 17:04 | 42.18745 | -70.59422 | 2994 ft | 223 kts | 8° |
| 2026-05-04 17:04 | 42.21862 | -70.58549 | 3006 ft | 231 kts | 7° |
| 2026-05-04 17:05 | 42.24967 | -70.57678 | 3005 ft | 226 kts | 7° |
| 2026-05-04 17:05 | 42.28047 | -70.56816 | 3006 ft | 225 kts | 7° |
| 2026-05-04 17:06 | 42.31107 | -70.55970 | 3011 ft | 223 kts | 4° |
| 2026-05-04 17:06 | 42.32614 | -70.56178 | 3017 ft | 220 kts | 337° |
| 2026-05-04 17:07 | 42.35090 | -70.58677 | 3011 ft | 223 kts | 317° |
| 2026-05-04 17:07 | 42.35820 | -70.59649 | 3009 ft | 222 kts | 317° |
| 2026-05-04 17:07 | 42.37279 | -70.61603 | 2997 ft | 222 kts | 316° |
| 2026-05-04 17:07 | 42.38381 | -70.63077 | 2999 ft | 221 kts | 316° |
| 2026-05-04 17:08 | 42.39479 | -70.64541 | 2999 ft | 221 kts | 316° |
| 2026-05-04 17:08 | 42.41677 | -70.67458 | 2981 ft | 222 kts | 317° |
| 2026-05-04 17:08 | 42.42785 | -70.68924 | 2987 ft | 223 kts | 316° |
| 2026-05-04 17:09 | 42.43858 | -70.70342 | 2956 ft | 208 kts | 316° |
| 2026-05-04 17:09 | 42.44826 | -70.71621 | 2935 ft | 183 kts | 316° |
| 2026-05-04 17:09 | 42.45711 | -70.72790 | 2998 ft | 172 kts | 316° |
| 2026-05-04 17:10 | 42.47358 | -70.74962 | 2950 ft | 163 kts | 316° |
| 2026-05-04 17:10 | 42.49798 | -70.78186 | 2981 ft | 165 kts | 316° |
| 2026-05-04 17:11 | 42.50625 | -70.79278 | 2978 ft | 165 kts | 316° |
| 2026-05-04 17:11 | 42.51438 | -70.80353 | 2977 ft | 165 kts | 316° |
| 2026-05-04 17:11 | 42.53439 | -70.81582 | 2983 ft | 168 kts | 1° |
| 2026-05-04 17:12 | 42.54574 | -70.81117 | 2985 ft | 172 kts | 14° |
| 2026-05-04 17:12 | 42.56903 | -70.79990 | 2972 ft | 183 kts | 13° |
| 2026-05-04 17:13 | 42.60010 | -70.78499 | 2955 ft | 178 kts | 15° |
| 2026-05-04 17:14 | 42.63553 | -70.76806 | 2979 ft | 179 kts | 9° |
| 2026-05-04 17:14 | 42.64723 | -70.76363 | 2980 ft | 172 kts | 8° |
| 2026-05-04 17:14 | 42.67061 | -70.75963 | 2950 ft | 162 kts | 330° |
| 2026-05-04 17:15 | 42.67876 | -70.77030 | 2978 ft | 170 kts | 302° |
| 2026-05-04 17:15 | 42.67778 | -70.80153 | 3003 ft | 196 kts | 241° |
| 2026-05-04 17:16 | 42.65491 | -70.82351 | 3000 ft | 206 kts | 215° |
| 2026-05-04 17:16 | 42.61905 | -70.85171 | 2974 ft | 192 kts | 218° |
| 2026-05-04 17:17 | 42.60767 | -70.86115 | 3005 ft | 193 kts | 218° |
| 2026-05-04 17:17 | 42.57346 | -70.88910 | 2934 ft | 188 kts | 218° |
| 2026-05-04 17:18 | 42.56261 | -70.89848 | 2978 ft | 186 kts | 219° |
| 2026-05-04 17:18 | 42.54004 | -70.91690 | 2974 ft | 188 kts | 216° |
| 2026-05-04 17:19 | 42.51797 | -70.93044 | 2978 ft | 170 kts | 208° |
| 2026-05-04 17:19 | 42.49527 | -70.94183 | 2633 ft | 175 kts | 207° |
| 2026-05-04 17:20 | 42.47240 | -70.95286 | 2191 ft | 172 kts | 207° |
| 2026-05-04 17:20 | 42.45048 | -70.96354 | 1744 ft | 161 kts | 207° |
| 2026-05-04 17:20 | 42.44003 | -70.96880 | 1528 ft | 160 kts | 209° |
| 2026-05-04 17:21 | 42.41872 | -70.97893 | 1076 ft | 160 kts | 208° |
| 2026-05-04 17:21 | 42.39903 | -70.98855 | 610 ft | 143 kts | 206° |
| 2026-05-04 17:22 | 42.38979 | -70.99299 | 402 ft | 140 kts | 202° |
| 2026-05-04 17:22 | 42.38371 | -70.99594 | 264 ft | 138 kts | 202° |
| 2026-05-04 17:23 | 42.36399 | -71.00616 | 30 ft | 13 kts | 263° |
| 2026-05-04 17:23 | 42.36420 | -71.00730 | 30 ft | 13 kts | 291° |
| 2026-05-04 17:23 | 42.36440 | -71.00795 | 30 ft | 0 kts | 292° |
| 2026-05-04 17:25 | 42.36450 | -71.00828 | 30 ft | 3 kts | 293° |
| 2026-05-04 17:26 | 42.36520 | -71.01048 | 30 ft | 23 kts | 291° |
| 2026-05-04 17:26 | 42.36842 | -71.01217 | 30 ft | 19 kts | 316° |
| 2026-05-04 17:27 | 42.37045 | -71.01490 | 30 ft | 26 kts | 315° |
| 2026-05-04 17:27 | 42.37283 | -71.01811 | 30 ft | 14 kts | 305° |
| 2026-05-04 17:28 | 42.37237 | -71.02059 | 30 ft | 15 kts | 271° |
| 2026-05-04 17:29 | 42.37238 | -71.02469 | 27 ft | 10 kts | 308° |
| 2026-05-04 17:29 | 42.37233 | -71.02591 | 29 ft | 0 kts | 225° |